Latest Coastal Weather Observations for Hogan Island

IDT60701

Issued at 10:52 am EDT Saturday 25 February 2017 (issued every 10 minutes, with the page automatically refreshed every 10 minutes)

About coastal observations | Map of coastal stations | Coastal observations for TAS | Marine services | Other Formats
Station Details ID: 200838 Name: HOGAN ISLAND Lat: -39.22 Lon: 146.98 Height: 116.0 m
Data from the previous 72 hours. | See also: Recent months at Hogan Island
Date/Time
EDT
Temp
°C
Wind Pressure Rain since
9am
mm
Weather Cloud Vis
km
Sea
Height
m
Swell
Dir  Spd
kts
Gust
kts
hPa Trend Height
m
Period
s
Dir
25/10:30am 17.7 SSW 6 10 1025.2 - 0.0 - - - - - - -
25/10:00am 17.8 SW 6 8 1025.0 - 0.0 - - - - - - -
25/09:30am 17.0 SW 5 7 1024.8 - 0.0 - - - - - - -
25/09:00am 15.7 SSW 4 5 1024.3 - 0.0 - - - - - - -
25/08:30am 14.9 WSW 6 8 1024.3 - 0.0 - - - - - - -
25/08:00am 15.0 WSW 4 6 1024.3 - 0.0 - - - - - - -
25/07:30am 14.1 S 2 3 1023.9 - 0.0 - - - - - - -
25/07:00am 13.2 SSW 4 6 1023.8 - 0.0 - - - - - - -
25/06:30am 13.0 S 6 9 1023.8 - 0.0 - - - - - - -
25/06:00am 13.1 SW 6 8 1023.2 - 0.0 - - - - - - -
25/05:30am 13.5 WSW 10 12 1023.1 - 0.0 - - - - - - -
25/05:00am 13.6 SW 10 12 1023.1 - 0.0 - - - - - - -
25/04:30am 13.7 SW 11 13 1023.2 - 0.0 - - - - - - -
25/04:00am 13.8 SW 12 14 1023.2 - 0.0 - - - - - - -
25/03:30am 14.0 SW 13 16 1023.2 - 0.0 - - - - - - -
25/03:00am 14.2 WSW 14 17 1023.0 - 0.0 - - - - - - -
25/02:30am 14.3 SW 14 17 1023.4 - 0.0 - - - - - - -
25/02:00am 14.4 SW 16 19 1023.5 - 0.0 - - - - - - -
25/01:30am 14.6 SW 15 19 1023.6 - 0.0 - - - - - - -
25/01:00am 14.6 SW 17 19 1023.6 - 0.0 - - - - - - -
25/12:30am 14.9 SW 17 21 1023.7 - 0.0 - - - - - - -
25/12:00am 14.8 SW 17 21 1023.5 - 0.0 - - - - - - -
 
Date/Time
EDT
Temp
°C
Wind Pressure Rain since
9am
mm
Weather Cloud Vis
km
Sea
Height
m
Swell
Dir  Spd
kts
Gust
kts
hPa Trend Height
m
Period
s
Dir
24/11:30pm 14.8 WSW 19 22 1023.8 - 0.0 - - - - - - -
24/11:00pm 14.9 WSW 21 24 1023.9 - 0.0 - - - - - - -
24/10:30pm 15.0 WSW 21 26 1024.1 - 0.0 - - - - - - -
24/10:00pm 15.0 WSW 22 25 1024.1 - 0.0 - - - - - - -
24/09:30pm 15.2 WSW 24 27 1023.9 - 0.0 - - - - - - -
24/09:00pm 15.3 WSW 25 29 1023.2 - 0.0 - - - - - - -
24/08:30pm 15.2 WSW 28 32 1023.2 - 0.0 - - - - - - -
24/08:00pm 15.4 WSW 29 33 1022.7 - 0.0 - - - - - - -
24/07:30pm 15.8 WSW 27 31 1022.6 - 0.0 - - - - - - -
24/07:00pm 16.3 WSW 27 31 1022.6 - 0.0 - - - - - - -
24/06:30pm 17.0 WSW 27 31 1022.7 - 0.0 - - - - - - -
24/06:00pm 17.2 WSW 27 31 1022.3 - 0.0 - - - - - - -
24/05:30pm 17.4 WSW 27 31 1022.4 - 0.0 - - - - - - -
24/05:00pm 17.9 W 28 33 1022.5 - 0.0 - - - - - - -
24/04:30pm 16.8 WSW 30 34 1022.4 - 0.0 - - - - - - -
24/04:00pm 18.3 WSW 27 32 1022.4 - 0.0 - - - - - - -
24/03:30pm 18.1 WSW 29 34 1022.3 - 0.0 - - - - - - -
24/03:00pm 18.3 WSW 27 31 1022.3 - 0.0 - - - - - - -
24/02:30pm 17.8 WSW 28 32 1022.8 - 0.0 - - - - - - -
24/02:00pm 16.5 WSW 28 34 1022.8 - 0.0 - - - - - - -
24/01:30pm 17.3 WSW 25 31 1022.8 - 0.0 - - - - - - -
24/01:00pm 16.0 WSW 27 31 1023.0 - 0.0 - - - - - - -
24/12:30pm 17.1 WSW 24 31 1023.1 - 0.0 - - - - - - -
24/12:00pm 16.4 WSW 25 29 1023.0 - 0.0 - - - - - - -
24/11:30am 16.2 WSW 23 26 1023.4 - 0.0 - - - - - - -
24/11:00am 16.3 W 22 28 1023.5 - 0.0 - - - - - - -
24/10:53am 16.0 W 22 28 1023.5 - 0.0 - - - - - - -
24/10:30am 15.6 WSW 22 26 1023.4 - 0.0 - - - - - - -
24/10:00am 15.9 W 20 23 1023.3 - 0.0 - - - - - - -
24/09:30am 15.6 WSW 22 25 1023.2 - 0.0 - - - - - - -
24/09:00am 15.1 WSW 21 26 1022.8 - 0.0 - - - - - - -
24/08:30am 15.0 WSW 20 24 1022.9 - 0.0 - - - - - - -
24/08:00am 14.8 WSW 18 22 1022.5 - 0.0 - - - - - - -
24/07:30am 14.8 WSW 21 26 1022.3 - 0.0 - - - - - - -
24/07:00am 15.0 WSW 21 25 1022.0 - 0.0 - - - - - - -
24/06:30am 15.0 W 20 24 1021.7 - 0.0 - - - - - - -
24/06:00am 15.0 WSW 20 23 1021.1 - 0.0 - - - - - - -
24/05:30am 15.2 W 20 23 1021.2 - 0.0 - - - - - - -
24/05:00am 15.1 WSW 19 23 1021.1 - 0.0 - - - - - - -
24/04:30am 15.1 WSW 20 25 1021.0 - 0.0 - - - - - - -
24/04:00am 15.3 WSW 19 22 1021.0 - 0.0 - - - - - - -
24/03:30am 15.2 WSW 20 24 1021.0 - 0.0 - - - - - - -
24/03:00am 15.2 WSW 22 26 1020.7 - 0.0 - - - - - - -
24/02:30am 15.4 WSW 20 23 1021.1 - 0.0 - - - - - - -
24/02:00am 15.6 WSW 19 23 1021.2 - 0.0 - - - - - - -
24/01:30am 15.5 WSW 23 26 1021.4 - 0.0 - - - - - - -
24/01:00am 15.5 WSW 21 25 1021.5 - 0.0 - - - - - - -
24/12:30am 15.7 WSW 21 25 1021.3 - 0.0 - - - - - - -
24/12:00am 15.8 WSW 26 31 1020.8 - 0.0 - - - - - - -
 
Date/Time
EDT
Temp
°C
Wind Pressure Rain since
9am
mm
Weather Cloud Vis
km
Sea
Height
m
Swell
Dir  Spd
kts
Gust
kts
hPa Trend Height
m
Period
s
Dir
23/11:30pm 15.5 WSW 25 29 1020.9 - 0.0 - - - - - - -
23/11:00pm 15.7 WSW 27 32 1020.6 - 0.0 - - - - - - -
23/10:30pm 15.8 WSW 25 30 1020.6 - 0.0 - - - - - - -
23/10:00pm 15.8 WSW 26 31 1020.5 - 0.0 - - - - - - -
23/09:30pm 15.9 WSW 22 26 1020.7 - 0.0 - - - - - - -
23/09:00pm 15.9 WSW 24 27 1019.8 - 0.0 - - - - - - -
23/08:30pm 16.6 WSW 27 31 1019.3 - 0.0 - - - - - - -
23/08:00pm 16.8 W 27 29 1018.8 - 0.0 - - - - - - -
23/07:30pm 17.2 W 27 31 1018.5 - 0.0 - - - - - - -
23/07:00pm 17.9 WSW 26 31 1018.4 - 0.0 - - - - - - -
23/06:30pm 18.2 W 28 33 1017.8 - 0.0 - - - - - - -
23/06:00pm 18.6 W 30 34 1017.0 - 0.0 - - - - - - -
23/05:30pm 19.2 W 23 28 1017.5 - 0.0 - - - - - - -
23/05:00pm 19.3 W 29 32 1017.0 - 0.0 - - - - - - -
23/04:30pm 20.3 W 26 29 1016.9 - 0.0 - - - - - - -
23/04:00pm 19.8 W 27 31 1016.9 - 0.0 - - - - - - -
23/03:30pm 20.6 W 26 30 1016.9 - 0.0 - - - - - - -
23/03:00pm 20.1 W 31 35 1016.1 - 0.0 - - - - - - -
23/02:30pm 20.1 W 31 36 1016.4 - 0.0 - - - - - - -
23/02:00pm 19.9 W 33 38 1016.2 - 0.0 - - - - - - -
23/01:30pm 20.2 W 30 36 1016.3 - 0.0 - - - - - - -
23/01:00pm 20.4 W 30 36 1016.3 - 0.0 - - - - - - -
23/12:30pm 20.3 W 30 34 1016.0 - 0.0 - - - - - - -
23/12:00pm 19.9 W 31 35 1015.5 - 0.0 - - - - - - -
23/11:30am 20.2 W 26 29 1015.8 - 0.0 - - - - - - -
23/11:00am 20.1 W 25 29 1015.7 - 0.0 - - - - - - -
23/10:30am 19.4 W 27 31 1015.4 - 0.0 - - - - - - -
23/10:00am 19.1 W 29 32 1015.1 - 0.0 - - - - - - -
23/09:30am 18.9 WNW 28 33 1014.8 - 0.0 - - - - - - -
23/09:00am 18.7 WNW 19 23 1014.6 - 0.0 - - - - - - -
23/08:30am 18.4 W 16 19 1014.6 - 0.0 - - - - - - -
23/08:00am 17.9 W 17 19 1014.0 - 0.0 - - - - - - -
23/07:30am 17.4 W 16 18 1013.6 - 0.0 - - - - - - -
23/07:00am 17.2 W 18 20 1013.0 - 0.0 - - - - - - -
23/06:30am 17.2 W 19 21 1012.5 - 0.0 - - - - - - -
23/06:00am 17.4 W 21 23 1011.7 - 0.0 - - - - - - -
23/05:30am 17.6 WSW 22 25 1011.7 - 0.0 - - - - - - -
23/05:00am 17.5 WSW 20 23 1011.6 - 0.0 - - - - - - -
23/04:30am 17.7 WSW 22 25 1011.2 - 0.0 - - - - - - -
23/04:00am 17.8 WSW 23 26 1011.0 - 0.0 - - - - - - -
23/03:30am 18.0 WSW 25 27 1010.7 - 0.0 - - - - - - -
23/03:00am 18.2 WSW 27 30 1010.3 - 0.0 - - - - - - -
23/02:30am 18.7 W 27 31 1010.4 - 0.0 - - - - - - -
23/02:00am 19.2 W 23 29 1010.0 - 0.0 - - - - - - -
23/01:55am 19.2 W 24 33 1010.0 - 0.0 - - - - - - -
23/01:31am 19.2 NW 27 41 1009.3 - 0.0 - - - - - - -
23/01:30am 19.4 NW 24 31 1009.7 - 0.0 - - - - - - -
23/01:00am 18.6 NNE 21 26 1008.3 - 0.0 - - - - - - -
23/12:30am 18.6 NE 19 24 1008.6 - 0.0 - - - - - - -
23/12:00am 18.3 NE 18 24 1008.8 - 0.0 - - - - - - -
 
Date/Time
EDT
Temp
°C
Wind Pressure Rain since
9am
mm
Weather Cloud Vis
km
Sea
Height
m
Swell
Dir  Spd
kts
Gust
kts
hPa Trend Height
m
Period
s
Dir
22/11:30pm 18.0 ENE 18 21 1010.0 - 0.0 - - - - - - -
22/11:00pm 17.8 ENE 18 21 1010.6 - 0.0 - - - - - - -
22/10:30pm 17.9 ENE 18 20 1011.0 - 0.0 - - - - - - -
22/10:00pm 17.6 ENE 19 23 1011.2 - 0.0 - - - - - - -
22/09:30pm 17.3 ENE 17 20 1011.5 - 0.0 - - - - - - -
22/09:00pm 17.3 NE 17 21 1011.4 - 0.0 - - - - - - -
22/08:30pm 17.2 ENE 15 17 1011.8 - 0.0 - - - - - - -
22/08:00pm 17.4 ENE 16 19 1011.6 - 0.0 - - - - - - -
22/07:30pm 17.7 ENE 14 16 1011.8 - 0.0 - - - - - - -
22/07:00pm 17.9 ENE 13 15 1011.8 - 0.0 - - - - - - -
22/06:30pm 18.1 E 12 14 1011.9 - 0.0 - - - - - - -
22/06:00pm 18.9 E 12 15 1011.4 - 0.0 - - - - - - -
22/05:30pm 19.5 ENE 13 16 1012.1 - 0.0 - - - - - - -
22/05:00pm 19.9 ENE 13 17 1012.0 - 0.0 - - - - - - -
22/04:30pm 19.7 ENE 14 17 1012.6 - 0.0 - - - - - - -
22/04:00pm 20.1 ENE 12 15 1013.1 - 0.0 - - - - - - -
22/03:30pm 19.6 ENE 12 14 1013.6 - 0.0 - - - - - - -
22/03:00pm 20.0 ENE 14 15 1013.7 - 0.0 - - - - - - -
22/02:30pm 20.1 ENE 14 15 1014.5 - 0.0 - - - - - - -
22/02:00pm 20.3 ENE 14 16 1014.9 - 0.0 - - - - - - -
22/01:30pm 20.5 ENE 13 16 1015.3 - 0.0 - - - - - - -
22/01:00pm 21.2 NE 13 16 1015.6 - 0.0 - - - - - - -
22/12:30pm 20.7 NE 13 17 1015.8 - 0.0 - - - - - - -
22/12:00pm 20.5 NNE 13 17 1015.8 - 0.0 - - - - - - -
22/11:30am 20.2 NNE 15 16 1016.5 - 0.0 - - - - - - -
22/11:00am 19.9 NE 16 19 1016.6 - 0.0 - - - - - - -

Other Formats:

Comma delimited format used in spreadsheet applications
http://www.bom.gov.au/fwo/IDT60701/IDT60701.94949.axf

JavaScript Object Notation format (JSON) in row-major order
http://www.bom.gov.au/fwo/IDT60701/IDT60701.94949.json